sensor_id;sensor_type;location;lat;lon;timestamp;temperature;humidity
29663;DHT22;16578;53.266;7.920;2022-08-19T00:00:36;20.60;69.90
29663;DHT22;16578;53.266;7.920;2022-08-19T00:03:03;20.60;70.00
29663;DHT22;16578;53.266;7.920;2022-08-19T00:05:29;20.60;70.00
29663;DHT22;16578;53.266;7.920;2022-08-19T00:07:54;20.50;70.00
29663;DHT22;16578;53.266;7.920;2022-08-19T00:10:20;20.50;70.10
29663;DHT22;16578;53.266;7.920;2022-08-19T00:12:46;20.50;70.20
29663;DHT22;16578;53.266;7.920;2022-08-19T00:15:14;20.50;70.20
29663;DHT22;16578;53.266;7.920;2022-08-19T00:17:42;20.50;70.20
29663;DHT22;16578;53.266;7.920;2022-08-19T00:20:11;20.50;70.20
29663;DHT22;16578;53.266;7.920;2022-08-19T00:22:38;20.40;70.20
29663;DHT22;16578;53.266;7.920;2022-08-19T00:25:05;20.40;70.20
29663;DHT22;16578;53.266;7.920;2022-08-19T00:27:31;20.40;70.10
29663;DHT22;16578;53.266;7.920;2022-08-19T00:29:57;20.40;70.10
29663;DHT22;16578;53.266;7.920;2022-08-19T00:32:24;20.40;70.10
29663;DHT22;16578;53.266;7.920;2022-08-19T00:34:51;20.30;70.10
29663;DHT22;16578;53.266;7.920;2022-08-19T00:37:18;20.30;70.20
29663;DHT22;16578;53.266;7.920;2022-08-19T00:39:44;20.30;70.20
29663;DHT22;16578;53.266;7.920;2022-08-19T00:42:10;20.30;70.20
29663;DHT22;16578;53.266;7.920;2022-08-19T00:44:35;20.30;70.20
29663;DHT22;16578;53.266;7.920;2022-08-19T00:47:01;20.30;70.20
29663;DHT22;16578;53.266;7.920;2022-08-19T00:49:41;20.30;70.20
29663;DHT22;16578;53.266;7.920;2022-08-19T00:52:14;20.30;70.00
29663;DHT22;16578;53.266;7.920;2022-08-19T00:54:41;20.20;70.10
29663;DHT22;16578;53.266;7.920;2022-08-19T00:57:10;20.20;70.10
29663;DHT22;16578;53.266;7.920;2022-08-19T00:59:42;20.20;70.00
29663;DHT22;16578;53.266;7.920;2022-08-19T01:02:10;20.20;70.10
29663;DHT22;16578;53.266;7.920;2022-08-19T01:04:36;20.20;70.20
29663;DHT22;16578;53.266;7.920;2022-08-19T01:07:02;20.10;70.10
29663;DHT22;16578;53.266;7.920;2022-08-19T01:09:28;20.10;70.10
29663;DHT22;16578;53.266;7.920;2022-08-19T01:11:54;20.10;70.10
29663;DHT22;16578;53.266;7.920;2022-08-19T01:14:21;20.10;70.00
29663;DHT22;16578;53.266;7.920;2022-08-19T01:16:47;20.00;70.20
29663;DHT22;16578;53.266;7.920;2022-08-19T01:19:20;20.00;70.20
29663;DHT22;16578;53.266;7.920;2022-08-19T01:21:57;20.00;70.30
29663;DHT22;16578;53.266;7.920;2022-08-19T01:24:23;20.00;70.30
29663;DHT22;16578;53.266;7.920;2022-08-19T01:26:48;20.00;70.20
29663;DHT22;16578;53.266;7.920;2022-08-19T01:29:14;19.90;70.10
29663;DHT22;16578;53.266;7.920;2022-08-19T01:31:40;20.00;70.20
29663;DHT22;16578;53.266;7.920;2022-08-19T01:34:06;19.90;70.10
29663;DHT22;16578;53.266;7.920;2022-08-19T01:36:41;19.90;70.10
29663;DHT22;16578;53.266;7.920;2022-08-19T01:39:11;19.90;70.20
29663;DHT22;16578;53.266;7.920;2022-08-19T01:41:37;19.90;70.30
29663;DHT22;16578;53.266;7.920;2022-08-19T01:44:04;19.80;70.30
29663;DHT22;16578;53.266;7.920;2022-08-19T01:46:31;19.80;70.20
29663;DHT22;16578;53.266;7.920;2022-08-19T01:48:57;19.80;71.10
29663;DHT22;16578;53.266;7.920;2022-08-19T01:51:23;19.80;70.20
29663;DHT22;16578;53.266;7.920;2022-08-19T01:53:50;19.80;70.20
29663;DHT22;16578;53.266;7.920;2022-08-19T01:56:16;19.80;70.20
29663;DHT22;16578;53.266;7.920;2022-08-19T01:58:47;19.70;70.10
29663;DHT22;16578;53.266;7.920;2022-08-19T02:01:14;19.70;70.10
29663;DHT22;16578;53.266;7.920;2022-08-19T02:03:40;19.70;70.00
29663;DHT22;16578;53.266;7.920;2022-08-19T02:06:06;19.70;70.00
29663;DHT22;16578;53.266;7.920;2022-08-19T02:08:34;19.70;69.90
29663;DHT22;16578;53.266;7.920;2022-08-19T02:11:00;19.60;69.70
29663;DHT22;16578;53.266;7.920;2022-08-19T02:13:26;19.60;70.00
29663;DHT22;16578;53.266;7.920;2022-08-19T02:15:52;19.60;70.00
29663;DHT22;16578;53.266;7.920;2022-08-19T02:18:17;19.60;70.10
29663;DHT22;16578;53.266;7.920;2022-08-19T02:20:44;19.50;70.10
29663;DHT22;16578;53.266;7.920;2022-08-19T02:23:11;19.50;70.10
29663;DHT22;16578;53.266;7.920;2022-08-19T02:25:37;19.50;70.10
29663;DHT22;16578;53.266;7.920;2022-08-19T02:28:04;19.50;71.10
29663;DHT22;16578;53.266;7.920;2022-08-19T02:30:30;19.50;70.20
29663;DHT22;16578;53.266;7.920;2022-08-19T02:32:56;19.40;70.20
29663;DHT22;16578;53.266;7.920;2022-08-19T02:35:21;19.50;71.20
29663;DHT22;16578;53.266;7.920;2022-08-19T02:37:47;19.40;70.20
29663;DHT22;16578;53.266;7.920;2022-08-19T02:40:32;19.40;70.20
29663;DHT22;16578;53.266;7.920;2022-08-19T02:43:00;19.40;70.20
29663;DHT22;16578;53.266;7.920;2022-08-19T02:45:26;19.40;70.20
29663;DHT22;16578;53.266;7.920;2022-08-19T02:47:52;19.40;70.20
29663;DHT22;16578;53.266;7.920;2022-08-19T02:50:18;19.30;70.10
29663;DHT22;16578;53.266;7.920;2022-08-19T02:52:43;19.30;70.30
29663;DHT22;16578;53.266;7.920;2022-08-19T02:55:10;19.30;70.30
29663;DHT22;16578;53.266;7.920;2022-08-19T02:57:36;19.30;70.40
29663;DHT22;16578;53.266;7.920;2022-08-19T03:00:05;19.30;70.50
29663;DHT22;16578;53.266;7.920;2022-08-19T03:02:30;19.30;70.50
29663;DHT22;16578;53.266;7.920;2022-08-19T03:04:56;19.30;70.60
29663;DHT22;16578;53.266;7.920;2022-08-19T03:07:21;19.30;70.60
29663;DHT22;16578;53.266;7.920;2022-08-19T03:09:47;19.20;70.50
29663;DHT22;16578;53.266;7.920;2022-08-19T03:12:12;19.20;70.60
29663;DHT22;16578;53.266;7.920;2022-08-19T03:14:38;19.20;70.60
29663;DHT22;16578;53.266;7.920;2022-08-19T03:17:04;19.20;70.60
29663;DHT22;16578;53.266;7.920;2022-08-19T03:19:30;19.20;70.40
29663;DHT22;16578;53.266;7.920;2022-08-19T03:21:57;19.20;71.30
29663;DHT22;16578;53.266;7.920;2022-08-19T03:24:23;19.10;70.50
29663;DHT22;16578;53.266;7.920;2022-08-19T03:26:53;19.10;70.70
29663;DHT22;16578;53.266;7.920;2022-08-19T03:29:23;19.10;70.70
29663;DHT22;16578;53.266;7.920;2022-08-19T03:31:49;19.10;70.70
29663;DHT22;16578;53.266;7.920;2022-08-19T03:34:29;19.10;70.80
29663;DHT22;16578;53.266;7.920;2022-08-19T03:36:57;19.10;70.80
29663;DHT22;16578;53.266;7.920;2022-08-19T03:39:24;19.10;70.80
29663;DHT22;16578;53.266;7.920;2022-08-19T03:41:51;19.10;70.80
29663;DHT22;16578;53.266;7.920;2022-08-19T03:44:19;19.00;70.80
29663;DHT22;16578;53.266;7.920;2022-08-19T03:46:56;19.00;70.80
29663;DHT22;16578;53.266;7.920;2022-08-19T03:49:24;19.00;70.90
29663;DHT22;16578;53.266;7.920;2022-08-19T03:51:50;19.00;70.90
29663;DHT22;16578;53.266;7.920;2022-08-19T03:54:19;19.00;70.70
29663;DHT22;16578;53.266;7.920;2022-08-19T03:56:47;19.00;70.60
29663;DHT22;16578;53.266;7.920;2022-08-19T03:59:16;18.90;70.70
29663;DHT22;16578;53.266;7.920;2022-08-19T04:01:42;18.90;70.70
29663;DHT22;16578;53.266;7.920;2022-08-19T04:04:08;18.90;70.70
29663;DHT22;16578;53.266;7.920;2022-08-19T04:06:35;18.90;70.70
29663;DHT22;16578;53.266;7.920;2022-08-19T04:09:04;18.90;70.70
29663;DHT22;16578;53.266;7.920;2022-08-19T04:11:36;18.90;70.70
29663;DHT22;16578;53.266;7.920;2022-08-19T04:14:04;18.90;70.70
29663;DHT22;16578;53.266;7.920;2022-08-19T04:16:30;18.80;70.70
29663;DHT22;16578;53.266;7.920;2022-08-19T04:18:56;18.80;70.80
29663;DHT22;16578;53.266;7.920;2022-08-19T04:21:26;18.80;70.80
29663;DHT22;16578;53.266;7.920;2022-08-19T04:23:53;18.80;70.80
29663;DHT22;16578;53.266;7.920;2022-08-19T04:26:28;18.80;70.60
29663;DHT22;16578;53.266;7.920;2022-08-19T04:28:58;18.80;70.50
29663;DHT22;16578;53.266;7.920;2022-08-19T04:31:28;18.80;70.50
29663;DHT22;16578;53.266;7.920;2022-08-19T04:33:59;18.80;70.60
29663;DHT22;16578;53.266;7.920;2022-08-19T04:36:27;18.80;70.70
29663;DHT22;16578;53.266;7.920;2022-08-19T04:39:01;18.70;70.90
29663;DHT22;16578;53.266;7.920;2022-08-19T04:41:28;18.80;71.10
29663;DHT22;16578;53.266;7.920;2022-08-19T04:44:13;18.70;71.20
29663;DHT22;16578;53.266;7.920;2022-08-19T04:46:39;18.70;71.30
29663;DHT22;16578;53.266;7.920;2022-08-19T04:49:05;18.70;71.50
29663;DHT22;16578;53.266;7.920;2022-08-19T04:51:33;18.70;71.50
29663;DHT22;16578;53.266;7.920;2022-08-19T04:54:00;18.70;71.50
29663;DHT22;16578;53.266;7.920;2022-08-19T04:56:26;18.70;71.60
29663;DHT22;16578;53.266;7.920;2022-08-19T04:58:54;18.70;71.60
29663;DHT22;16578;53.266;7.920;2022-08-19T05:01:22;18.70;71.70
29663;DHT22;16578;53.266;7.920;2022-08-19T05:03:48;18.70;71.70
29663;DHT22;16578;53.266;7.920;2022-08-19T05:06:17;18.70;71.60
29663;DHT22;16578;53.266;7.920;2022-08-19T05:08:43;18.70;71.60
29663;DHT22;16578;53.266;7.920;2022-08-19T05:11:10;18.70;71.60
29663;DHT22;16578;53.266;7.920;2022-08-19T05:13:36;18.70;71.60
29663;DHT22;16578;53.266;7.920;2022-08-19T05:16:02;18.70;71.70
29663;DHT22;16578;53.266;7.920;2022-08-19T05:18:28;18.70;71.80
29663;DHT22;16578;53.266;7.920;2022-08-19T05:21:14;18.70;72.00
29663;DHT22;16578;53.266;7.920;2022-08-19T05:23:59;18.70;72.00
29663;DHT22;16578;53.266;7.920;2022-08-19T05:26:25;18.70;72.20
29663;DHT22;16578;53.266;7.920;2022-08-19T05:28:54;18.70;72.40
29663;DHT22;16578;53.266;7.920;2022-08-19T05:31:20;18.70;72.60
29663;DHT22;16578;53.266;7.920;2022-08-19T05:33:47;18.70;72.70
29663;DHT22;16578;53.266;7.920;2022-08-19T05:36:12;18.80;72.90
29663;DHT22;16578;53.266;7.920;2022-08-19T05:38:39;18.80;73.10
29663;DHT22;16578;53.266;7.920;2022-08-19T05:41:09;18.80;73.20
29663;DHT22;16578;53.266;7.920;2022-08-19T05:43:36;18.90;73.50
29663;DHT22;16578;53.266;7.920;2022-08-19T05:46:03;18.90;73.60
29663;DHT22;16578;53.266;7.920;2022-08-19T05:48:34;18.90;73.60
29663;DHT22;16578;53.266;7.920;2022-08-19T05:51:05;18.90;73.70
29663;DHT22;16578;53.266;7.920;2022-08-19T05:53:32;19.00;73.90
29663;DHT22;16578;53.266;7.920;2022-08-19T05:55:57;19.00;74.00
29663;DHT22;16578;53.266;7.920;2022-08-19T05:58:23;19.00;74.10
29663;DHT22;16578;53.266;7.920;2022-08-19T06:00:50;19.10;74.10
29663;DHT22;16578;53.266;7.920;2022-08-19T06:03:15;19.10;74.10
29663;DHT22;16578;53.266;7.920;2022-08-19T06:05:41;19.20;74.10
29663;DHT22;16578;53.266;7.920;2022-08-19T06:08:07;19.20;74.00
29663;DHT22;16578;53.266;7.920;2022-08-19T06:10:33;19.20;74.00
29663;DHT22;16578;53.266;7.920;2022-08-19T06:12:58;19.30;73.80
29663;DHT22;16578;53.266;7.920;2022-08-19T06:15:24;19.30;73.80
29663;DHT22;16578;53.266;7.920;2022-08-19T06:17:53;19.40;73.80
29663;DHT22;16578;53.266;7.920;2022-08-19T06:20:18;19.40;73.80
29663;DHT22;16578;53.266;7.920;2022-08-19T06:22:46;19.40;73.80
29663;DHT22;16578;53.266;7.920;2022-08-19T06:25:15;19.50;73.80
29663;DHT22;16578;53.266;7.920;2022-08-19T06:27:41;19.50;73.90
29663;DHT22;16578;53.266;7.920;2022-08-19T06:30:07;19.50;73.90
29663;DHT22;16578;53.266;7.920;2022-08-19T06:32:33;19.60;74.00
29663;DHT22;16578;53.266;7.920;2022-08-19T06:34:59;19.60;74.00
29663;DHT22;16578;53.266;7.920;2022-08-19T06:37:24;19.60;74.00
29663;DHT22;16578;53.266;7.920;2022-08-19T06:39:50;19.60;74.00
29663;DHT22;16578;53.266;7.920;2022-08-19T06:42:16;19.70;74.10
29663;DHT22;16578;53.266;7.920;2022-08-19T06:44:46;19.70;74.00
29663;DHT22;16578;53.266;7.920;2022-08-19T06:47:17;19.80;74.10
29663;DHT22;16578;53.266;7.920;2022-08-19T06:49:43;19.80;73.90
29663;DHT22;16578;53.266;7.920;2022-08-19T06:52:10;19.80;73.90
29663;DHT22;16578;53.266;7.920;2022-08-19T06:54:38;19.80;74.10
29663;DHT22;16578;53.266;7.920;2022-08-19T06:57:05;19.80;74.20
29663;DHT22;16578;53.266;7.920;2022-08-19T06:59:32;19.90;74.40
29663;DHT22;16578;53.266;7.920;2022-08-19T07:02:03;20.00;74.40
29663;DHT22;16578;53.266;7.920;2022-08-19T07:04:32;20.00;74.40
29663;DHT22;16578;53.266;7.920;2022-08-19T07:07:05;20.10;74.50
29663;DHT22;16578;53.266;7.920;2022-08-19T07:09:33;20.10;74.40
29663;DHT22;16578;53.266;7.920;2022-08-19T07:11:58;20.20;74.50
29663;DHT22;16578;53.266;7.920;2022-08-19T07:14:27;20.20;74.40
29663;DHT22;16578;53.266;7.920;2022-08-19T07:16:54;20.30;74.30
29663;DHT22;16578;53.266;7.920;2022-08-19T07:19:21;20.30;74.30
29663;DHT22;16578;53.266;7.920;2022-08-19T07:21:49;20.30;74.20
29663;DHT22;16578;53.266;7.920;2022-08-19T07:24:16;20.40;74.20
29663;DHT22;16578;53.266;7.920;2022-08-19T07:26:43;20.40;74.10
29663;DHT22;16578;53.266;7.920;2022-08-19T07:29:10;20.40;74.00
29663;DHT22;16578;53.266;7.920;2022-08-19T07:31:36;20.50;74.00
29663;DHT22;16578;53.266;7.920;2022-08-19T07:34:04;20.50;74.00
29663;DHT22;16578;53.266;7.920;2022-08-19T07:36:36;20.50;74.00
29663;DHT22;16578;53.266;7.920;2022-08-19T07:39:10;20.60;74.30
29663;DHT22;16578;53.266;7.920;2022-08-19T07:41:37;20.70;74.60
29663;DHT22;16578;53.266;7.920;2022-08-19T07:44:04;20.70;74.50
29663;DHT22;16578;53.266;7.920;2022-08-19T07:46:34;20.80;74.40
29663;DHT22;16578;53.266;7.920;2022-08-19T07:49:01;20.80;74.30
29663;DHT22;16578;53.266;7.920;2022-08-19T07:51:28;20.80;74.50
29663;DHT22;16578;53.266;7.920;2022-08-19T07:53:54;20.90;74.40
29663;DHT22;16578;53.266;7.920;2022-08-19T07:56:21;21.00;74.50
29663;DHT22;16578;53.266;7.920;2022-08-19T07:58:49;21.10;74.80
29663;DHT22;16578;53.266;7.920;2022-08-19T08:01:21;21.10;74.70
29663;DHT22;16578;53.266;7.920;2022-08-19T08:03:48;21.20;74.70
29663;DHT22;16578;53.266;7.920;2022-08-19T08:06:33;21.20;74.50
29663;DHT22;16578;53.266;7.920;2022-08-19T08:09:21;21.40;74.60
29663;DHT22;16578;53.266;7.920;2022-08-19T08:12:15;21.40;74.40
29663;DHT22;16578;53.266;7.920;2022-08-19T08:14:47;21.60;74.30
29663;DHT22;16578;53.266;7.920;2022-08-19T08:17:15;21.70;74.50
29663;DHT22;16578;53.266;7.920;2022-08-19T08:19:41;21.80;74.50
29663;DHT22;16578;53.266;7.920;2022-08-19T08:22:07;21.90;73.90
29663;DHT22;16578;53.266;7.920;2022-08-19T08:24:33;22.00;73.50
29663;DHT22;16578;53.266;7.920;2022-08-19T08:27:01;22.10;73.30
29663;DHT22;16578;53.266;7.920;2022-08-19T08:29:29;22.10;73.20
29663;DHT22;16578;53.266;7.920;2022-08-19T08:31:55;22.20;73.40
29663;DHT22;16578;53.266;7.920;2022-08-19T08:34:21;22.30;73.00
29663;DHT22;16578;53.266;7.920;2022-08-19T08:36:47;22.40;73.00
29663;DHT22;16578;53.266;7.920;2022-08-19T08:39:15;22.40;72.70
29663;DHT22;16578;53.266;7.920;2022-08-19T08:41:51;22.50;72.40
29663;DHT22;16578;53.266;7.920;2022-08-19T08:44:48;22.60;72.50
29663;DHT22;16578;53.266;7.920;2022-08-19T08:47:14;22.70;72.40
29663;DHT22;16578;53.266;7.920;2022-08-19T08:49:51;22.80;72.10
29663;DHT22;16578;53.266;7.920;2022-08-19T08:52:29;22.90;72.20
29663;DHT22;16578;53.266;7.920;2022-08-19T08:54:58;23.00;72.10
29663;DHT22;16578;53.266;7.920;2022-08-19T08:57:32;23.00;71.60
29663;DHT22;16578;53.266;7.920;2022-08-19T09:00:02;23.10;71.20
29663;DHT22;16578;53.266;7.920;2022-08-19T09:02:30;23.10;71.00
29663;DHT22;16578;53.266;7.920;2022-08-19T09:04:56;23.20;71.00
29663;DHT22;16578;53.266;7.920;2022-08-19T09:10:51;23.20;70.60
29663;DHT22;16578;53.266;7.920;2022-08-19T09:13:42;23.20;70.30
29663;DHT22;16578;53.266;7.920;2022-08-19T09:16:16;23.30;70.20
29663;DHT22;16578;53.266;7.920;2022-08-19T09:18:44;23.30;70.10
29663;DHT22;16578;53.266;7.920;2022-08-19T09:21:13;23.30;70.20
29663;DHT22;16578;53.266;7.920;2022-08-19T09:23:38;23.30;70.20
29663;DHT22;16578;53.266;7.920;2022-08-19T09:26:09;23.40;70.10
29663;DHT22;16578;53.266;7.920;2022-08-19T09:28:35;23.40;69.80
29663;DHT22;16578;53.266;7.920;2022-08-19T09:31:02;23.40;69.90
29663;DHT22;16578;53.266;7.920;2022-08-19T09:33:27;23.40;69.80
29663;DHT22;16578;53.266;7.920;2022-08-19T09:36:02;23.40;69.60
29663;DHT22;16578;53.266;7.920;2022-08-19T09:38:28;23.50;69.20
29663;DHT22;16578;53.266;7.920;2022-08-19T09:40:54;23.50;69.30
29663;DHT22;16578;53.266;7.920;2022-08-19T09:43:19;23.50;69.40
29663;DHT22;16578;53.266;7.920;2022-08-19T09:45:45;23.50;69.20
29663;DHT22;16578;53.266;7.920;2022-08-19T09:48:10;23.50;69.50
29663;DHT22;16578;53.266;7.920;2022-08-19T09:50:36;23.60;69.60
29663;DHT22;16578;53.266;7.920;2022-08-19T09:53:03;23.60;69.50
29663;DHT22;16578;53.266;7.920;2022-08-19T09:55:31;23.60;69.40
29663;DHT22;16578;53.266;7.920;2022-08-19T09:57:56;23.70;69.30
29663;DHT22;16578;53.266;7.920;2022-08-19T10:00:22;23.70;69.00
29663;DHT22;16578;53.266;7.920;2022-08-19T10:02:47;23.80;69.00
29663;DHT22;16578;53.266;7.920;2022-08-19T10:05:13;23.80;68.80
29663;DHT22;16578;53.266;7.920;2022-08-19T10:07:57;23.90;68.70
29663;DHT22;16578;53.266;7.920;2022-08-19T10:10:26;23.90;68.80
29663;DHT22;16578;53.266;7.920;2022-08-19T10:12:52;24.00;68.60
29663;DHT22;16578;53.266;7.920;2022-08-19T10:15:17;24.00;68.60
29663;DHT22;16578;53.266;7.920;2022-08-19T10:17:46;24.10;68.40
29663;DHT22;16578;53.266;7.920;2022-08-19T10:20:12;24.20;68.00
29663;DHT22;16578;53.266;7.920;2022-08-19T10:22:38;24.20;67.70
29663;DHT22;16578;53.266;7.920;2022-08-19T10:25:05;24.20;67.40
29663;DHT22;16578;53.266;7.920;2022-08-19T10:27:30;24.20;67.20
29663;DHT22;16578;53.266;7.920;2022-08-19T10:29:56;24.30;67.20
29663;DHT22;16578;53.266;7.920;2022-08-19T10:32:22;24.30;67.20
29663;DHT22;16578;53.266;7.920;2022-08-19T10:34:48;24.40;67.30
29663;DHT22;16578;53.266;7.920;2022-08-19T10:37:16;24.40;67.40
29663;DHT22;16578;53.266;7.920;2022-08-19T10:39:45;24.40;68.50
29663;DHT22;16578;53.266;7.920;2022-08-19T10:42:13;24.50;67.10
29663;DHT22;16578;53.266;7.920;2022-08-19T10:44:39;24.50;67.10
29663;DHT22;16578;53.266;7.920;2022-08-19T10:47:05;24.60;66.70
29663;DHT22;16578;53.266;7.920;2022-08-19T10:49:31;24.60;66.20
29663;DHT22;16578;53.266;7.920;2022-08-19T10:51:57;24.60;66.00
29663;DHT22;16578;53.266;7.920;2022-08-19T10:54:42;24.70;66.40
29663;DHT22;16578;53.266;7.920;2022-08-19T10:57:30;24.70;66.40
29663;DHT22;16578;53.266;7.920;2022-08-19T10:59:56;24.80;66.40
29663;DHT22;16578;53.266;7.920;2022-08-19T11:02:22;24.80;66.60
29663;DHT22;16578;53.266;7.920;2022-08-19T11:04:48;24.90;66.10
29663;DHT22;16578;53.266;7.920;2022-08-19T11:07:15;25.00;65.80
29663;DHT22;16578;53.266;7.920;2022-08-19T11:09:41;25.00;65.40
29663;DHT22;16578;53.266;7.920;2022-08-19T11:12:08;25.10;65.50
29663;DHT22;16578;53.266;7.920;2022-08-19T11:14:35;25.10;65.30
29663;DHT22;16578;53.266;7.920;2022-08-19T11:17:02;25.10;65.00
29663;DHT22;16578;53.266;7.920;2022-08-19T11:19:28;25.20;65.10
29663;DHT22;16578;53.266;7.920;2022-08-19T11:21:53;25.20;65.10
29663;DHT22;16578;53.266;7.920;2022-08-19T11:24:21;25.20;65.10
29663;DHT22;16578;53.266;7.920;2022-08-19T11:26:48;25.20;65.30
29663;DHT22;16578;53.266;7.920;2022-08-19T11:29:16;25.30;65.30
29663;DHT22;16578;53.266;7.920;2022-08-19T11:31:45;25.30;65.10
29663;DHT22;16578;53.266;7.920;2022-08-19T11:34:14;25.30;65.20
29663;DHT22;16578;53.266;7.920;2022-08-19T11:36:43;25.30;65.00
29663;DHT22;16578;53.266;7.920;2022-08-19T11:39:10;25.40;64.90
29663;DHT22;16578;53.266;7.920;2022-08-19T11:41:36;25.30;64.60
29663;DHT22;16578;53.266;7.920;2022-08-19T11:44:02;25.40;64.50
29663;DHT22;16578;53.266;7.920;2022-08-19T11:46:30;25.40;64.20
29663;DHT22;16578;53.266;7.920;2022-08-19T11:48:57;25.40;64.10
29663;DHT22;16578;53.266;7.920;2022-08-19T11:51:23;25.40;64.00
29663;DHT22;16578;53.266;7.920;2022-08-19T11:53:56;25.40;63.70
29663;DHT22;16578;53.266;7.920;2022-08-19T11:56:24;25.40;63.60
29663;DHT22;16578;53.266;7.920;2022-08-19T11:58:51;25.40;63.80
29663;DHT22;16578;53.266;7.920;2022-08-19T12:01:19;25.50;63.70
29663;DHT22;16578;53.266;7.920;2022-08-19T12:03:47;25.50;63.20
29663;DHT22;16578;53.266;7.920;2022-08-19T12:06:16;25.50;63.10
29663;DHT22;16578;53.266;7.920;2022-08-19T12:08:42;25.50;63.10
29663;DHT22;16578;53.266;7.920;2022-08-19T12:11:10;25.60;63.30
29663;DHT22;16578;53.266;7.920;2022-08-19T12:13:37;25.60;63.50
29663;DHT22;16578;53.266;7.920;2022-08-19T12:16:09;25.60;63.50
29663;DHT22;16578;53.266;7.920;2022-08-19T12:18:36;25.70;63.50
29663;DHT22;16578;53.266;7.920;2022-08-19T12:21:02;25.70;63.50
29663;DHT22;16578;53.266;7.920;2022-08-19T12:23:29;25.80;63.60
29663;DHT22;16578;53.266;7.920;2022-08-19T12:25:54;25.80;63.50
29663;DHT22;16578;53.266;7.920;2022-08-19T12:28:23;25.90;63.70
29663;DHT22;16578;53.266;7.920;2022-08-19T12:30:49;25.90;63.50
29663;DHT22;16578;53.266;7.920;2022-08-19T12:33:19;25.90;63.50
29663;DHT22;16578;53.266;7.920;2022-08-19T12:35:45;26.00;63.20
29663;DHT22;16578;53.266;7.920;2022-08-19T12:38:13;26.00;63.10
29663;DHT22;16578;53.266;7.920;2022-08-19T12:40:40;26.10;62.30
29663;DHT22;16578;53.266;7.920;2022-08-19T12:43:06;26.10;62.30
29663;DHT22;16578;53.266;7.920;2022-08-19T12:45:32;26.10;61.50
29663;DHT22;16578;53.266;7.920;2022-08-19T12:47:57;26.20;61.40
29663;DHT22;16578;53.266;7.920;2022-08-19T12:50:23;26.20;61.30
29663;DHT22;16578;53.266;7.920;2022-08-19T12:52:49;26.20;60.50
29663;DHT22;16578;53.266;7.920;2022-08-19T12:55:14;26.20;60.50
29663;DHT22;16578;53.266;7.920;2022-08-19T12:57:40;26.20;60.10
29663;DHT22;16578;53.266;7.920;2022-08-19T13:00:12;26.30;60.20
29663;DHT22;16578;53.266;7.920;2022-08-19T13:02:44;26.20;59.30
29663;DHT22;16578;53.266;7.920;2022-08-19T13:05:16;26.30;59.10
29663;DHT22;16578;53.266;7.920;2022-08-19T13:07:43;26.30;59.30
29663;DHT22;16578;53.266;7.920;2022-08-19T13:10:14;26.30;59.40
29663;DHT22;16578;53.266;7.920;2022-08-19T13:12:41;26.30;58.90
29663;DHT22;16578;53.266;7.920;2022-08-19T13:15:07;26.40;58.90
29663;DHT22;16578;53.266;7.920;2022-08-19T13:17:34;26.40;58.60
29663;DHT22;16578;53.266;7.920;2022-08-19T13:19:59;26.40;58.30
29663;DHT22;16578;53.266;7.920;2022-08-19T13:22:25;26.50;58.40
29663;DHT22;16578;53.266;7.920;2022-08-19T13:24:50;26.50;58.50
29663;DHT22;16578;53.266;7.920;2022-08-19T13:27:16;26.50;58.60
29663;DHT22;16578;53.266;7.920;2022-08-19T13:29:42;26.50;58.60
29663;DHT22;16578;53.266;7.920;2022-08-19T13:32:26;26.50;58.50
29663;DHT22;16578;53.266;7.920;2022-08-19T13:35:10;26.50;58.60
29663;DHT22;16578;53.266;7.920;2022-08-19T13:37:36;26.50;58.30
29663;DHT22;16578;53.266;7.920;2022-08-19T13:40:16;26.60;58.30
29663;DHT22;16578;53.266;7.920;2022-08-19T13:42:45;26.60;58.10
29663;DHT22;16578;53.266;7.920;2022-08-19T13:45:12;26.60;58.10
29663;DHT22;16578;53.266;7.920;2022-08-19T13:47:38;26.70;58.00
29663;DHT22;16578;53.266;7.920;2022-08-19T13:50:15;26.70;58.20
29663;DHT22;16578;53.266;7.920;2022-08-19T13:52:41;26.80;57.80
29663;DHT22;16578;53.266;7.920;2022-08-19T13:55:08;26.80;57.90
29663;DHT22;16578;53.266;7.920;2022-08-19T13:57:34;26.80;57.70
29663;DHT22;16578;53.266;7.920;2022-08-19T14:00:03;26.80;57.80
29663;DHT22;16578;53.266;7.920;2022-08-19T14:02:29;26.80;57.80
29663;DHT22;16578;53.266;7.920;2022-08-19T14:04:54;26.80;57.90
29663;DHT22;16578;53.266;7.920;2022-08-19T14:07:20;26.80;57.80
29663;DHT22;16578;53.266;7.920;2022-08-19T14:09:49;26.90;57.60
29663;DHT22;16578;53.266;7.920;2022-08-19T14:12:18;26.90;57.60
29663;DHT22;16578;53.266;7.920;2022-08-19T14:14:44;26.90;57.50
29663;DHT22;16578;53.266;7.920;2022-08-19T14:17:09;26.90;57.70
29663;DHT22;16578;53.266;7.920;2022-08-19T14:19:35;27.00;57.90
29663;DHT22;16578;53.266;7.920;2022-08-19T14:22:02;27.00;57.90
29663;DHT22;16578;53.266;7.920;2022-08-19T14:24:28;27.10;57.90
29663;DHT22;16578;53.266;7.920;2022-08-19T14:26:54;27.10;57.90
29663;DHT22;16578;53.266;7.920;2022-08-19T14:29:19;27.10;57.60
29663;DHT22;16578;53.266;7.920;2022-08-19T14:31:45;27.10;57.50
29663;DHT22;16578;53.266;7.920;2022-08-19T14:34:11;27.10;57.20
29663;DHT22;16578;53.266;7.920;2022-08-19T14:36:38;27.10;57.30
29663;DHT22;16578;53.266;7.920;2022-08-19T14:39:04;27.10;57.20
29663;DHT22;16578;53.266;7.920;2022-08-19T14:41:29;27.10;57.20
29663;DHT22;16578;53.266;7.920;2022-08-19T14:43:55;27.10;57.50
29663;DHT22;16578;53.266;7.920;2022-08-19T14:46:23;27.10;57.40
29663;DHT22;16578;53.266;7.920;2022-08-19T14:48:50;27.10;57.50
29663;DHT22;16578;53.266;7.920;2022-08-19T14:51:16;27.10;57.50
29663;DHT22;16578;53.266;7.920;2022-08-19T14:53:42;27.20;57.40
29663;DHT22;16578;53.266;7.920;2022-08-19T14:56:14;27.20;57.30
29663;DHT22;16578;53.266;7.920;2022-08-19T14:58:41;27.20;57.20
29663;DHT22;16578;53.266;7.920;2022-08-19T15:01:08;27.20;57.30
29663;DHT22;16578;53.266;7.920;2022-08-19T15:03:34;27.20;57.10
29663;DHT22;16578;53.266;7.920;2022-08-19T15:06:01;27.20;57.00
29663;DHT22;16578;53.266;7.920;2022-08-19T15:08:29;27.20;57.00
29663;DHT22;16578;53.266;7.920;2022-08-19T15:10:55;27.20;57.50
29663;DHT22;16578;53.266;7.920;2022-08-19T15:13:21;27.30;57.40
29663;DHT22;16578;53.266;7.920;2022-08-19T15:15:47;27.30;57.40
29663;DHT22;16578;53.266;7.920;2022-08-19T15:18:13;27.30;57.30
29663;DHT22;16578;53.266;7.920;2022-08-19T15:20:39;27.30;57.00
29663;DHT22;16578;53.266;7.920;2022-08-19T15:23:06;27.30;57.20
29663;DHT22;16578;53.266;7.920;2022-08-19T15:25:32;27.30;57.30
29663;DHT22;16578;53.266;7.920;2022-08-19T15:27:58;27.40;57.50
29663;DHT22;16578;53.266;7.920;2022-08-19T15:30:27;27.40;57.40
29663;DHT22;16578;53.266;7.920;2022-08-19T15:32:53;27.40;57.30
29663;DHT22;16578;53.266;7.920;2022-08-19T15:35:21;27.40;57.20
29663;DHT22;16578;53.266;7.920;2022-08-19T15:37:52;27.50;57.20